sensor_id;sensor_type;location;lat;lon;timestamp;temperature;humidity
28460;DHT22;32528;45.712;9.192;2023-08-06T00:01:38;20.60;95.20
28460;DHT22;32528;45.712;9.192;2023-08-06T00:03:38;20.60;95.10
28460;DHT22;32528;45.712;9.192;2023-08-06T00:05:42;20.60;95.10
28460;DHT22;32528;45.712;9.192;2023-08-06T00:07:47;20.60;95.20
28460;DHT22;32528;45.712;9.192;2023-08-06T00:09:47;20.50;95.20
28460;DHT22;32528;45.712;9.192;2023-08-06T00:11:48;20.60;95.20
28460;DHT22;32528;45.712;9.192;2023-08-06T00:13:49;20.60;95.20
28460;DHT22;32528;45.712;9.192;2023-08-06T00:15:49;20.60;95.10
28460;DHT22;32528;45.712;9.192;2023-08-06T00:17:50;20.70;95.20
28460;DHT22;32528;45.712;9.192;2023-08-06T00:19:51;20.70;95.20
28460;DHT22;32528;45.712;9.192;2023-08-06T00:21:52;20.60;95.10
28460;DHT22;32528;45.712;9.192;2023-08-06T00:23:52;20.60;95.30
28460;DHT22;32528;45.712;9.192;2023-08-06T00:25:53;20.50;95.50
28460;DHT22;32528;45.712;9.192;2023-08-06T00:27:54;20.50;95.50
28460;DHT22;32528;45.712;9.192;2023-08-06T00:29:54;20.60;95.40
28460;DHT22;32528;45.712;9.192;2023-08-06T00:31:56;20.60;95.40
28460;DHT22;32528;45.712;9.192;2023-08-06T00:33:59;20.60;95.30
28460;DHT22;32528;45.712;9.192;2023-08-06T00:36:00;20.60;95.40
28460;DHT22;32528;45.712;9.192;2023-08-06T00:38:00;20.60;95.80
28460;DHT22;32528;45.712;9.192;2023-08-06T00:40:01;20.60;95.60
28460;DHT22;32528;45.712;9.192;2023-08-06T00:42:02;20.60;95.70
28460;DHT22;32528;45.712;9.192;2023-08-06T00:44:03;20.60;95.70
28460;DHT22;32528;45.712;9.192;2023-08-06T00:46:04;20.50;95.70
28460;DHT22;32528;45.712;9.192;2023-08-06T00:48:05;20.50;95.80
28460;DHT22;32528;45.712;9.192;2023-08-06T00:50:08;20.50;95.80
28460;DHT22;32528;45.712;9.192;2023-08-06T00:52:09;20.50;95.70
28460;DHT22;32528;45.712;9.192;2023-08-06T00:54:11;20.50;95.90
28460;DHT22;32528;45.712;9.192;2023-08-06T00:56:12;20.50;95.90
28460;DHT22;32528;45.712;9.192;2023-08-06T00:58:15;20.50;95.80
28460;DHT22;32528;45.712;9.192;2023-08-06T01:00:16;20.50;95.80
28460;DHT22;32528;45.712;9.192;2023-08-06T01:02:18;20.60;95.80
28460;DHT22;32528;45.712;9.192;2023-08-06T01:04:19;20.60;95.90
28460;DHT22;32528;45.712;9.192;2023-08-06T01:06:42;20.60;95.90
28460;DHT22;32528;45.712;9.192;2023-08-06T01:09:01;20.60;95.90
28460;DHT22;32528;45.712;9.192;2023-08-06T01:11:38;20.60;96.00
28460;DHT22;32528;45.712;9.192;2023-08-06T01:13:57;20.50;96.20
28460;DHT22;32528;45.712;9.192;2023-08-06T01:16:00;20.40;96.40
28460;DHT22;32528;45.712;9.192;2023-08-06T01:18:02;20.40;96.20
28460;DHT22;32528;45.712;9.192;2023-08-06T01:20:03;20.40;96.10
28460;DHT22;32528;45.712;9.192;2023-08-06T01:22:04;20.50;96.10
28460;DHT22;32528;45.712;9.192;2023-08-06T01:24:07;20.40;96.10
28460;DHT22;32528;45.712;9.192;2023-08-06T01:30:55;20.30;96.50
28460;DHT22;32528;45.712;9.192;2023-08-06T01:33:03;20.20;96.40
28460;DHT22;32528;45.712;9.192;2023-08-06T01:35:04;20.10;96.50
28460;DHT22;32528;45.712;9.192;2023-08-06T01:37:05;20.10;96.60
28460;DHT22;32528;45.712;9.192;2023-08-06T01:39:09;20.10;96.70
28460;DHT22;32528;45.712;9.192;2023-08-06T01:41:09;20.00;96.70
28460;DHT22;32528;45.712;9.192;2023-08-06T01:43:11;19.90;96.80
28460;DHT22;32528;45.712;9.192;2023-08-06T01:45:12;19.90;96.90
28460;DHT22;32528;45.712;9.192;2023-08-06T01:47:12;19.90;97.00
28460;DHT22;32528;45.712;9.192;2023-08-06T01:49:13;19.80;97.00
28460;DHT22;32528;45.712;9.192;2023-08-06T01:51:14;19.80;97.10
28460;DHT22;32528;45.712;9.192;2023-08-06T01:53:14;19.80;97.10
28460;DHT22;32528;45.712;9.192;2023-08-06T01:55:15;19.80;97.10
28460;DHT22;32528;45.712;9.192;2023-08-06T01:57:16;19.80;97.00
28460;DHT22;32528;45.712;9.192;2023-08-06T01:59:17;19.80;97.00
28460;DHT22;32528;45.712;9.192;2023-08-06T02:01:17;19.70;97.20
28460;DHT22;32528;45.712;9.192;2023-08-06T02:03:19;19.70;97.10
28460;DHT22;32528;45.712;9.192;2023-08-06T02:05:23;19.60;97.20
28460;DHT22;32528;45.712;9.192;2023-08-06T02:07:23;19.50;97.50
28460;DHT22;32528;45.712;9.192;2023-08-06T02:09:24;19.40;97.60
28460;DHT22;32528;45.712;9.192;2023-08-06T02:11:26;19.40;97.80
28460;DHT22;32528;45.712;9.192;2023-08-06T02:13:28;19.30;97.90
28460;DHT22;32528;45.712;9.192;2023-08-06T02:15:28;19.30;97.90
28460;DHT22;32528;45.712;9.192;2023-08-06T02:17:29;19.40;97.90
28460;DHT22;32528;45.712;9.192;2023-08-06T02:19:30;19.20;97.90
28460;DHT22;32528;45.712;9.192;2023-08-06T02:21:30;19.20;97.90
28460;DHT22;32528;45.712;9.192;2023-08-06T02:23:31;19.20;98.10
28460;DHT22;32528;45.712;9.192;2023-08-06T02:25:32;19.20;98.20
28460;DHT22;32528;45.712;9.192;2023-08-06T02:27:34;19.10;98.20
28460;DHT22;32528;45.712;9.192;2023-08-06T02:29:34;19.10;98.20
28460;DHT22;32528;45.712;9.192;2023-08-06T02:31:35;19.10;98.30
28460;DHT22;32528;45.712;9.192;2023-08-06T02:33:36;19.00;98.30
28460;DHT22;32528;45.712;9.192;2023-08-06T02:35:37;19.00;98.30
28460;DHT22;32528;45.712;9.192;2023-08-06T02:37:37;18.90;98.50
28460;DHT22;32528;45.712;9.192;2023-08-06T02:39:38;18.90;98.60
28460;DHT22;32528;45.712;9.192;2023-08-06T02:41:41;18.80;98.60
28460;DHT22;32528;45.712;9.192;2023-08-06T02:43:42;18.80;98.60
28460;DHT22;32528;45.712;9.192;2023-08-06T02:45:43;18.80;98.60
28460;DHT22;32528;45.712;9.192;2023-08-06T02:47:44;18.70;98.60
28460;DHT22;32528;45.712;9.192;2023-08-06T02:49:44;18.70;98.80
28460;DHT22;32528;45.712;9.192;2023-08-06T02:51:46;18.60;98.90
28460;DHT22;32528;45.712;9.192;2023-08-06T02:53:48;18.60;99.00
28460;DHT22;32528;45.712;9.192;2023-08-06T02:55:50;18.50;99.10
28460;DHT22;32528;45.712;9.192;2023-08-06T02:57:55;18.50;99.10
28460;DHT22;32528;45.712;9.192;2023-08-06T02:59:56;18.50;99.10
28460;DHT22;32528;45.712;9.192;2023-08-06T03:01:58;18.50;99.10
28460;DHT22;32528;45.712;9.192;2023-08-06T03:04:07;18.40;99.10
28460;DHT22;32528;45.712;9.192;2023-08-06T03:06:13;18.50;99.20
28460;DHT22;32528;45.712;9.192;2023-08-06T03:08:20;18.40;99.20
28460;DHT22;32528;45.712;9.192;2023-08-06T03:10:24;18.50;99.10
28460;DHT22;32528;45.712;9.192;2023-08-06T03:12:27;18.40;99.00
28460;DHT22;32528;45.712;9.192;2023-08-06T03:14:28;18.40;99.10
28460;DHT22;32528;45.712;9.192;2023-08-06T03:16:28;18.40;99.10
28460;DHT22;32528;45.712;9.192;2023-08-06T03:18:29;18.30;99.20
28460;DHT22;32528;45.712;9.192;2023-08-06T03:20:32;18.20;99.40
28460;DHT22;32528;45.712;9.192;2023-08-06T03:22:33;18.20;99.60
28460;DHT22;32528;45.712;9.192;2023-08-06T03:24:34;18.10;99.60
28460;DHT22;32528;45.712;9.192;2023-08-06T03:26:35;18.10;99.90
28460;DHT22;32528;45.712;9.192;2023-08-06T03:28:36;18.10;99.80
28460;DHT22;32528;45.712;9.192;2023-08-06T03:30:37;18.00;99.90
28460;DHT22;32528;45.712;9.192;2023-08-06T03:32:38;18.00;99.80
28460;DHT22;32528;45.712;9.192;2023-08-06T03:34:40;18.00;99.80
28460;DHT22;32528;45.712;9.192;2023-08-06T03:36:41;18.00;99.80
28460;DHT22;32528;45.712;9.192;2023-08-06T03:38:42;18.00;99.70
28460;DHT22;32528;45.712;9.192;2023-08-06T03:40:44;18.00;99.70
28460;DHT22;32528;45.712;9.192;2023-08-06T03:42:45;18.00;99.80
28460;DHT22;32528;45.712;9.192;2023-08-06T03:44:46;17.90;99.80
28460;DHT22;32528;45.712;9.192;2023-08-06T03:46:48;17.80;99.80
28460;DHT22;32528;45.712;9.192;2023-08-06T03:48:49;17.80;99.70
28460;DHT22;32528;45.712;9.192;2023-08-06T03:50:50;17.70;99.70
28460;DHT22;32528;45.712;9.192;2023-08-06T03:52:52;17.80;99.60
28460;DHT22;32528;45.712;9.192;2023-08-06T03:54:53;17.70;99.60
28460;DHT22;32528;45.712;9.192;2023-08-06T03:56:54;17.70;99.60
28460;DHT22;32528;45.712;9.192;2023-08-06T03:58:55;17.70;99.70
28460;DHT22;32528;45.712;9.192;2023-08-06T04:01:02;17.70;99.60
28460;DHT22;32528;45.712;9.192;2023-08-06T04:03:16;17.70;99.70
28460;DHT22;32528;45.712;9.192;2023-08-06T04:05:17;17.60;99.60
28460;DHT22;32528;45.712;9.192;2023-08-06T04:07:18;17.60;99.50
28460;DHT22;32528;45.712;9.192;2023-08-06T04:09:18;17.60;99.50
28460;DHT22;32528;45.712;9.192;2023-08-06T04:11:19;17.60;99.50
28460;DHT22;32528;45.712;9.192;2023-08-06T04:13:20;17.60;99.40
28460;DHT22;32528;45.712;9.192;2023-08-06T04:15:21;17.60;99.40
28460;DHT22;32528;45.712;9.192;2023-08-06T04:17:22;17.60;99.20
28460;DHT22;32528;45.712;9.192;2023-08-06T04:19:23;17.60;99.20
28460;DHT22;32528;45.712;9.192;2023-08-06T04:21:24;17.70;99.20
28460;DHT22;32528;45.712;9.192;2023-08-06T04:23:25;17.70;99.10
28460;DHT22;32528;45.712;9.192;2023-08-06T04:25:30;17.70;99.00
28460;DHT22;32528;45.712;9.192;2023-08-06T04:27:31;17.60;99.00
28460;DHT22;32528;45.712;9.192;2023-08-06T04:29:31;17.60;99.10
28460;DHT22;32528;45.712;9.192;2023-08-06T04:31:33;17.60;99.30
28460;DHT22;32528;45.712;9.192;2023-08-06T04:33:34;17.50;99.20
28460;DHT22;32528;45.712;9.192;2023-08-06T04:35:40;17.50;99.20
28460;DHT22;32528;45.712;9.192;2023-08-06T04:37:41;17.50;99.30
28460;DHT22;32528;45.712;9.192;2023-08-06T04:39:42;17.40;99.10
28460;DHT22;32528;45.712;9.192;2023-08-06T04:41:44;17.50;99.00
28460;DHT22;32528;45.712;9.192;2023-08-06T04:43:45;17.50;98.90
28460;DHT22;32528;45.712;9.192;2023-08-06T04:45:49;17.50;98.80
28460;DHT22;32528;45.712;9.192;2023-08-06T04:47:50;17.60;98.80
28460;DHT22;32528;45.712;9.192;2023-08-06T04:49:51;17.70;98.60
28460;DHT22;32528;45.712;9.192;2023-08-06T04:51:52;17.70;98.80
28460;DHT22;32528;45.712;9.192;2023-08-06T04:53:53;17.70;98.70
28460;DHT22;32528;45.712;9.192;2023-08-06T04:55:53;17.70;98.50
28460;DHT22;32528;45.712;9.192;2023-08-06T04:57:54;17.70;98.10
28460;DHT22;32528;45.712;9.192;2023-08-06T04:59:55;17.80;97.80
28460;DHT22;32528;45.712;9.192;2023-08-06T05:01:55;17.90;97.70
28460;DHT22;32528;45.712;9.192;2023-08-06T05:03:56;17.90;97.40
28460;DHT22;32528;45.712;9.192;2023-08-06T05:05:57;18.00;97.40
28460;DHT22;32528;45.712;9.192;2023-08-06T05:07:57;18.10;97.30
28460;DHT22;32528;45.712;9.192;2023-08-06T05:09:58;18.20;97.00
28460;DHT22;32528;45.712;9.192;2023-08-06T05:12:03;18.30;96.80
28460;DHT22;32528;45.712;9.192;2023-08-06T05:14:04;18.40;96.50
28460;DHT22;32528;45.712;9.192;2023-08-06T05:16:04;18.50;96.30
28460;DHT22;32528;45.712;9.192;2023-08-06T05:18:05;18.60;96.00
28460;DHT22;32528;45.712;9.192;2023-08-06T05:20:06;18.70;95.70
28460;DHT22;32528;45.712;9.192;2023-08-06T05:22:07;18.70;95.40
28460;DHT22;32528;45.712;9.192;2023-08-06T05:24:08;18.90;95.00
28460;DHT22;32528;45.712;9.192;2023-08-06T05:26:09;19.10;95.00
28460;DHT22;32528;45.712;9.192;2023-08-06T05:28:09;19.20;94.90
28460;DHT22;32528;45.712;9.192;2023-08-06T05:30:10;19.30;94.70
28460;DHT22;32528;45.712;9.192;2023-08-06T05:32:11;19.40;94.20
28460;DHT22;32528;45.712;9.192;2023-08-06T05:34:12;19.40;94.10
28460;DHT22;32528;45.712;9.192;2023-08-06T05:36:13;19.60;94.50
28460;DHT22;32528;45.712;9.192;2023-08-06T05:38:13;19.70;94.50
28460;DHT22;32528;45.712;9.192;2023-08-06T05:40:14;19.80;94.60
28460;DHT22;32528;45.712;9.192;2023-08-06T05:42:15;19.90;94.30
28460;DHT22;32528;45.712;9.192;2023-08-06T05:44:16;20.00;94.20
28460;DHT22;32528;45.712;9.192;2023-08-06T05:46:17;19.90;94.00
28460;DHT22;32528;45.712;9.192;2023-08-06T05:48:17;19.90;93.80
28460;DHT22;32528;45.712;9.192;2023-08-06T05:50:18;19.90;94.20
28460;DHT22;32528;45.712;9.192;2023-08-06T05:52:19;20.00;94.20
28460;DHT22;32528;45.712;9.192;2023-08-06T05:54:19;20.10;94.30
28460;DHT22;32528;45.712;9.192;2023-08-06T05:56:20;20.10;94.20
28460;DHT22;32528;45.712;9.192;2023-08-06T05:58:21;20.10;94.20
28460;DHT22;32528;45.712;9.192;2023-08-06T06:00:22;20.20;94.00
28460;DHT22;32528;45.712;9.192;2023-08-06T06:02:23;20.40;94.30
28460;DHT22;32528;45.712;9.192;2023-08-06T06:04:25;20.50;93.90
28460;DHT22;32528;45.712;9.192;2023-08-06T06:06:25;20.50;93.90
28460;DHT22;32528;45.712;9.192;2023-08-06T06:08:26;20.50;93.90
28460;DHT22;32528;45.712;9.192;2023-08-06T06:10:27;20.60;94.20
28460;DHT22;32528;45.712;9.192;2023-08-06T06:12:28;20.70;93.90
28460;DHT22;32528;45.712;9.192;2023-08-06T06:14:29;20.70;93.90
28460;DHT22;32528;45.712;9.192;2023-08-06T06:16:29;20.80;93.60
28460;DHT22;32528;45.712;9.192;2023-08-06T06:18:30;20.80;92.60
28460;DHT22;32528;45.712;9.192;2023-08-06T06:20:32;21.00;92.20
28460;DHT22;32528;45.712;9.192;2023-08-06T06:22:33;21.10;91.50
28460;DHT22;32528;45.712;9.192;2023-08-06T06:24:34;21.20;92.00
28460;DHT22;32528;45.712;9.192;2023-08-06T06:26:35;21.30;91.90
28460;DHT22;32528;45.712;9.192;2023-08-06T06:28:35;21.40;91.20
28460;DHT22;32528;45.712;9.192;2023-08-06T06:30:36;21.50;90.20
28460;DHT22;32528;45.712;9.192;2023-08-06T06:32:37;21.50;90.00
28460;DHT22;32528;45.712;9.192;2023-08-06T06:34:37;21.60;89.60
28460;DHT22;32528;45.712;9.192;2023-08-06T06:36:38;21.70;86.60
28460;DHT22;32528;45.712;9.192;2023-08-06T06:38:39;21.80;85.70
28460;DHT22;32528;45.712;9.192;2023-08-06T06:40:40;21.90;84.20
28460;DHT22;32528;45.712;9.192;2023-08-06T06:42:41;22.00;86.50
28460;DHT22;32528;45.712;9.192;2023-08-06T06:44:43;22.00;85.00
28460;DHT22;32528;45.712;9.192;2023-08-06T06:46:43;22.20;86.10
28460;DHT22;32528;45.712;9.192;2023-08-06T06:48:44;22.20;86.20
28460;DHT22;32528;45.712;9.192;2023-08-06T06:50:48;22.30;84.00
28460;DHT22;32528;45.712;9.192;2023-08-06T06:52:49;22.40;82.60
28460;DHT22;32528;45.712;9.192;2023-08-06T06:54:49;22.40;81.00
28460;DHT22;32528;45.712;9.192;2023-08-06T06:56:50;22.50;81.30
28460;DHT22;32528;45.712;9.192;2023-08-06T06:58:51;22.60;80.40
28460;DHT22;32528;45.712;9.192;2023-08-06T07:00:51;22.70;78.80
28460;DHT22;32528;45.712;9.192;2023-08-06T07:02:52;22.80;77.00
28460;DHT22;32528;45.712;9.192;2023-08-06T07:04:53;22.80;76.70
28460;DHT22;32528;45.712;9.192;2023-08-06T07:06:53;22.90;75.90
28460;DHT22;32528;45.712;9.192;2023-08-06T07:08:54;22.90;76.10
28460;DHT22;32528;45.712;9.192;2023-08-06T07:11:05;23.00;75.70
28460;DHT22;32528;45.712;9.192;2023-08-06T07:13:07;23.00;73.50
28460;DHT22;32528;45.712;9.192;2023-08-06T07:15:08;23.10;74.50
28460;DHT22;32528;45.712;9.192;2023-08-06T07:17:09;23.20;75.50
28460;DHT22;32528;45.712;9.192;2023-08-06T07:19:10;23.20;75.60
28460;DHT22;32528;45.712;9.192;2023-08-06T07:21:10;23.30;75.50
28460;DHT22;32528;45.712;9.192;2023-08-06T07:23:11;23.30;72.80
28460;DHT22;32528;45.712;9.192;2023-08-06T07:25:12;23.30;72.80
28460;DHT22;32528;45.712;9.192;2023-08-06T07:27:12;23.40;68.30
28460;DHT22;32528;45.712;9.192;2023-08-06T07:29:13;23.40;71.00
28460;DHT22;32528;45.712;9.192;2023-08-06T07:31:14;23.50;71.50
28460;DHT22;32528;45.712;9.192;2023-08-06T07:33:15;23.50;73.70
28460;DHT22;32528;45.712;9.192;2023-08-06T07:35:15;23.50;70.40
28460;DHT22;32528;45.712;9.192;2023-08-06T07:37:16;23.60;70.70
28460;DHT22;32528;45.712;9.192;2023-08-06T07:39:17;23.60;70.00
28460;DHT22;32528;45.712;9.192;2023-08-06T07:41:18;23.60;69.10
28460;DHT22;32528;45.712;9.192;2023-08-06T07:43:18;23.70;70.00
28460;DHT22;32528;45.712;9.192;2023-08-06T07:45:20;23.70;69.60
28460;DHT22;32528;45.712;9.192;2023-08-06T07:47:21;23.70;69.50
28460;DHT22;32528;45.712;9.192;2023-08-06T07:49:22;23.80;70.40
28460;DHT22;32528;45.712;9.192;2023-08-06T07:51:22;23.80;69.90
28460;DHT22;32528;45.712;9.192;2023-08-06T07:53:24;23.90;67.60
28460;DHT22;32528;45.712;9.192;2023-08-06T07:55:27;23.90;66.80
28460;DHT22;32528;45.712;9.192;2023-08-06T07:57:28;23.90;67.40
28460;DHT22;32528;45.712;9.192;2023-08-06T07:59:28;24.00;67.90
28460;DHT22;32528;45.712;9.192;2023-08-06T08:01:29;24.00;65.40
28460;DHT22;32528;45.712;9.192;2023-08-06T08:03:30;24.00;65.50
28460;DHT22;32528;45.712;9.192;2023-08-06T08:05:30;24.10;64.50
28460;DHT22;32528;45.712;9.192;2023-08-06T08:07:31;24.20;65.40
28460;DHT22;32528;45.712;9.192;2023-08-06T08:09:32;24.30;65.20
28460;DHT22;32528;45.712;9.192;2023-08-06T08:11:33;24.40;63.50
28460;DHT22;32528;45.712;9.192;2023-08-06T08:13:33;24.40;59.50
28460;DHT22;32528;45.712;9.192;2023-08-06T08:15:35;24.40;59.30
28460;DHT22;32528;45.712;9.192;2023-08-06T08:17:35;24.40;60.30
28460;DHT22;32528;45.712;9.192;2023-08-06T08:19:36;24.50;57.90
28460;DHT22;32528;45.712;9.192;2023-08-06T08:21:37;24.50;58.30
28460;DHT22;32528;45.712;9.192;2023-08-06T08:23:37;24.50;57.40
28460;DHT22;32528;45.712;9.192;2023-08-06T08:25:39;24.60;58.40
28460;DHT22;32528;45.712;9.192;2023-08-06T08:27:40;24.60;58.50
28460;DHT22;32528;45.712;9.192;2023-08-06T08:29:41;24.60;58.80
28460;DHT22;32528;45.712;9.192;2023-08-06T08:31:41;24.80;58.60
28460;DHT22;32528;45.712;9.192;2023-08-06T08:33:44;24.80;57.20
28460;DHT22;32528;45.712;9.192;2023-08-06T08:35:46;24.80;58.40
28460;DHT22;32528;45.712;9.192;2023-08-06T08:37:47;24.80;56.10
28460;DHT22;32528;45.712;9.192;2023-08-06T08:39:48;24.80;56.10
28460;DHT22;32528;45.712;9.192;2023-08-06T08:41:48;24.90;55.90
28460;DHT22;32528;45.712;9.192;2023-08-06T08:43:50;24.90;54.20
28460;DHT22;32528;45.712;9.192;2023-08-06T08:45:54;24.90;54.70
28460;DHT22;32528;45.712;9.192;2023-08-06T08:48:01;25.00;54.50
28460;DHT22;32528;45.712;9.192;2023-08-06T08:50:02;24.90;54.20
28460;DHT22;32528;45.712;9.192;2023-08-06T08:52:05;24.90;52.30
28460;DHT22;32528;45.712;9.192;2023-08-06T08:54:12;25.00;54.50
28460;DHT22;32528;45.712;9.192;2023-08-06T08:56:13;25.10;55.30
28460;DHT22;32528;45.712;9.192;2023-08-06T08:58:15;25.10;54.60
28460;DHT22;32528;45.712;9.192;2023-08-06T09:00:16;25.10;53.50
28460;DHT22;32528;45.712;9.192;2023-08-06T09:02:18;25.20;53.10
28460;DHT22;32528;45.712;9.192;2023-08-06T09:04:19;25.20;53.80
28460;DHT22;32528;45.712;9.192;2023-08-06T09:06:21;25.20;53.80
28460;DHT22;32528;45.712;9.192;2023-08-06T09:08:29;25.20;53.40
28460;DHT22;32528;45.712;9.192;2023-08-06T09:10:32;25.30;53.50
28460;DHT22;32528;45.712;9.192;2023-08-06T09:12:33;25.30;53.10
28460;DHT22;32528;45.712;9.192;2023-08-06T09:14:34;25.30;54.50
28460;DHT22;32528;45.712;9.192;2023-08-06T09:16:35;25.40;53.60
28460;DHT22;32528;45.712;9.192;2023-08-06T09:18:39;25.40;53.60
28460;DHT22;32528;45.712;9.192;2023-08-06T09:20:40;25.40;52.80
28460;DHT22;32528;45.712;9.192;2023-08-06T09:22:41;25.40;53.10
28460;DHT22;32528;45.712;9.192;2023-08-06T09:24:42;25.50;54.60
28460;DHT22;32528;45.712;9.192;2023-08-06T09:26:44;25.50;54.90
28460;DHT22;32528;45.712;9.192;2023-08-06T09:28:45;25.70;54.60
28460;DHT22;32528;45.712;9.192;2023-08-06T09:30:47;25.70;51.70
28460;DHT22;32528;45.712;9.192;2023-08-06T09:32:49;25.70;53.30
28460;DHT22;32528;45.712;9.192;2023-08-06T09:34:56;25.80;51.50
28460;DHT22;32528;45.712;9.192;2023-08-06T09:36:57;25.80;49.70
28460;DHT22;32528;45.712;9.192;2023-08-06T09:38:58;25.80;50.90
28460;DHT22;32528;45.712;9.192;2023-08-06T09:40:58;25.70;47.60
28460;DHT22;32528;45.712;9.192;2023-08-06T09:43:00;25.70;48.80
28460;DHT22;32528;45.712;9.192;2023-08-06T09:45:06;25.80;48.70
28460;DHT22;32528;45.712;9.192;2023-08-06T09:47:07;25.90;50.10
28460;DHT22;32528;45.712;9.192;2023-08-06T09:49:08;25.90;49.70
28460;DHT22;32528;45.712;9.192;2023-08-06T09:51:11;25.90;47.70
28460;DHT22;32528;45.712;9.192;2023-08-06T09:53:13;26.00;48.30
28460;DHT22;32528;45.712;9.192;2023-08-06T09:55:15;26.00;49.00
28460;DHT22;32528;45.712;9.192;2023-08-06T09:57:16;26.00;48.20
28460;DHT22;32528;45.712;9.192;2023-08-06T09:59:17;26.10;48.60
28460;DHT22;32528;45.712;9.192;2023-08-06T10:01:19;26.00;47.60
28460;DHT22;32528;45.712;9.192;2023-08-06T10:03:21;26.10;48.10
28460;DHT22;32528;45.712;9.192;2023-08-06T10:05:23;26.10;47.70
28460;DHT22;32528;45.712;9.192;2023-08-06T10:07:24;26.20;48.50
28460;DHT22;32528;45.712;9.192;2023-08-06T10:09:25;26.20;47.70
28460;DHT22;32528;45.712;9.192;2023-08-06T10:11:26;26.20;47.90
28460;DHT22;32528;45.712;9.192;2023-08-06T10:13:29;26.30;48.30
28460;DHT22;32528;45.712;9.192;2023-08-06T10:15:32;26.30;48.40
28460;DHT22;32528;45.712;9.192;2023-08-06T10:17:33;26.40;47.80
28460;DHT22;32528;45.712;9.192;2023-08-06T10:19:34;26.40;47.30
28460;DHT22;32528;45.712;9.192;2023-08-06T10:21:38;26.30;48.30
28460;DHT22;32528;45.712;9.192;2023-08-06T10:23:40;26.40;49.40
28460;DHT22;32528;45.712;9.192;2023-08-06T10:25:42;26.50;49.20
28460;DHT22;32528;45.712;9.192;2023-08-06T10:29:49;26.50;47.60
28460;DHT22;32528;45.712;9.192;2023-08-06T10:31:55;26.40;47.30
28460;DHT22;32528;45.712;9.192;2023-08-06T10:33:56;26.40;46.80
28460;DHT22;32528;45.712;9.192;2023-08-06T10:36:01;26.50;47.10
28460;DHT22;32528;45.712;9.192;2023-08-06T10:38:10;26.50;46.40
28460;DHT22;32528;45.712;9.192;2023-08-06T10:40:11;26.40;46.20
28460;DHT22;32528;45.712;9.192;2023-08-06T10:42:28;26.50;47.20
28460;DHT22;32528;45.712;9.192;2023-08-06T10:44:29;26.60;46.20
28460;DHT22;32528;45.712;9.192;2023-08-06T10:46:30;26.50;45.70
28460;DHT22;32528;45.712;9.192;2023-08-06T10:48:35;26.60;47.00
28460;DHT22;32528;45.712;9.192;2023-08-06T10:50:39;26.60;46.10
28460;DHT22;32528;45.712;9.192;2023-08-06T10:52:40;26.70;46.40
28460;DHT22;32528;45.712;9.192;2023-08-06T10:54:41;26.70;46.50
28460;DHT22;32528;45.712;9.192;2023-08-06T10:56:42;26.70;45.30
28460;DHT22;32528;45.712;9.192;2023-08-06T10:58:44;26.80;45.60
28460;DHT22;32528;45.712;9.192;2023-08-06T11:00:45;26.90;46.60
28460;DHT22;32528;45.712;9.192;2023-08-06T11:02:51;26.90;47.60
28460;DHT22;32528;45.712;9.192;2023-08-06T11:04:52;26.90;45.50
28460;DHT22;32528;45.712;9.192;2023-08-06T11:06:53;26.80;45.90
28460;DHT22;32528;45.712;9.192;2023-08-06T11:08:54;26.80;45.40
28460;DHT22;32528;45.712;9.192;2023-08-06T11:10:55;26.90;46.90
28460;DHT22;32528;45.712;9.192;2023-08-06T11:13:07;27.00;47.50
28460;DHT22;32528;45.712;9.192;2023-08-06T11:15:08;27.00;46.50
28460;DHT22;32528;45.712;9.192;2023-08-06T11:17:09;27.00;47.40
28460;DHT22;32528;45.712;9.192;2023-08-06T11:19:10;27.10;46.90
28460;DHT22;32528;45.712;9.192;2023-08-06T11:21:11;27.10;47.40
28460;DHT22;32528;45.712;9.192;2023-08-06T11:23:14;27.10;46.20
28460;DHT22;32528;45.712;9.192;2023-08-06T11:25:15;27.10;45.70
28460;DHT22;32528;45.712;9.192;2023-08-06T11:27:17;27.10;46.30
28460;DHT22;32528;45.712;9.192;2023-08-06T11:29:18;27.20;46.30
28460;DHT22;32528;45.712;9.192;2023-08-06T11:31:21;27.10;45.20
28460;DHT22;32528;45.712;9.192;2023-08-06T11:33:22;27.10;45.00
28460;DHT22;32528;45.712;9.192;2023-08-06T11:35:25;27.20;46.50
28460;DHT22;32528;45.712;9.192;2023-08-06T11:37:26;27.20;46.30
28460;DHT22;32528;45.712;9.192;2023-08-06T11:39:27;27.20;44.90
28460;DHT22;32528;45.712;9.192;2023-08-06T11:41:32;27.20;45.40
28460;DHT22;32528;45.712;9.192;2023-08-06T11:43:33;27.20;46.40
28460;DHT22;32528;45.712;9.192;2023-08-06T11:45:35;27.30;46.60
28460;DHT22;32528;45.712;9.192;2023-08-06T11:47:38;27.40;46.40
28460;DHT22;32528;45.712;9.192;2023-08-06T11:49:44;27.40;46.50
28460;DHT22;32528;45.712;9.192;2023-08-06T11:51:45;27.40;44.80
28460;DHT22;32528;45.712;9.192;2023-08-06T11:53:49;27.30;44.50
28460;DHT22;32528;45.712;9.192;2023-08-06T11:55:50;27.30;44.20
28460;DHT22;32528;45.712;9.192;2023-08-06T11:57:52;27.30;45.90
28460;DHT22;32528;45.712;9.192;2023-08-06T11:59:53;27.30;45.00
28460;DHT22;32528;45.712;9.192;2023-08-06T12:01:54;27.30;44.90
28460;DHT22;32528;45.712;9.192;2023-08-06T12:04:01;27.40;45.30
28460;DHT22;32528;45.712;9.192;2023-08-06T12:06:01;27.40;43.80
28460;DHT22;32528;45.712;9.192;2023-08-06T12:08:03;27.40;44.20
28460;DHT22;32528;45.712;9.192;2023-08-06T12:10:05;27.50;44.00
28460;DHT22;32528;45.712;9.192;2023-08-06T12:12:05;27.50;45.40
28460;DHT22;32528;45.712;9.192;2023-08-06T12:14:06;27.50;45.40
28460;DHT22;32528;45.712;9.192;2023-08-06T12:16:07;27.60;45.10
28460;DHT22;32528;45.712;9.192;2023-08-06T12:18:08;27.70;45.80
28460;DHT22;32528;45.712;9.192;2023-08-06T12:20:09;27.70;44.90
28460;DHT22;32528;45.712;9.192;2023-08-06T12:22:10;27.90;46.10
28460;DHT22;32528;45.712;9.192;2023-08-06T12:24:11;27.80;45.70
28460;DHT22;32528;45.712;9.192;2023-08-06T12:26:12;27.80;45.00
28460;DHT22;32528;45.712;9.192;2023-08-06T12:28:12;27.80;44.40
28460;DHT22;32528;45.712;9.192;2023-08-06T12:30:13;27.70;44.10
28460;DHT22;32528;45.712;9.192;2023-08-06T12:32:14;27.70;44.30
28460;DHT22;32528;45.712;9.192;2023-08-06T12:34:15;27.70;43.30
28460;DHT22;32528;45.712;9.192;2023-08-06T12:36:16;27.80;44.80
28460;DHT22;32528;45.712;9.192;2023-08-06T12:38:17;27.70;43.70
28460;DHT22;32528;45.712;9.192;2023-08-06T12:40:17;27.80;44.20
28460;DHT22;32528;45.712;9.192;2023-08-06T12:42:18;27.70;43.50
28460;DHT22;32528;45.712;9.192;2023-08-06T12:44:19;27.70;42.90
28460;DHT22;32528;45.712;9.192;2023-08-06T12:46:19;27.70;43.40
28460;DHT22;32528;45.712;9.192;2023-08-06T12:48:20;27.70;42.80
28460;DHT22;32528;45.712;9.192;2023-08-06T12:50:21;27.70;42.70
28460;DHT22;32528;45.712;9.192;2023-08-06T12:52:22;27.70;43.90
28460;DHT22;32528;45.712;9.192;2023-08-06T12:54:22;27.80;44.00
28460;DHT22;32528;45.712;9.192;2023-08-06T12:56:23;27.80;43.10